sensor_id;sensor_type;location;lat;lon;timestamp;pressure;altitude;pressure_sealevel;temperature;humidity
38786;BME280;24535;45.508;12.252;2023-04-07T00:00:28;101666.16;;;11.67;54.78
38786;BME280;24535;45.508;12.252;2023-04-07T00:02:54;101668.00;;;11.65;55.06
38786;BME280;24535;45.508;12.252;2023-04-07T00:05:21;101662.22;;;11.58;54.85
38786;BME280;24535;45.508;12.252;2023-04-07T00:07:46;101658.81;;;11.56;54.68
38786;BME280;24535;45.508;12.252;2023-04-07T00:10:12;101659.94;;;11.52;55.08
38786;BME280;24535;45.508;12.252;2023-04-07T00:12:37;101656.72;;;11.47;55.11
38786;BME280;24535;45.508;12.252;2023-04-07T00:15:03;101653.41;;;11.44;54.89
38786;BME280;24535;45.508;12.252;2023-04-07T00:17:28;101651.75;;;11.41;55.70
38786;BME280;24535;45.508;12.252;2023-04-07T00:19:54;101644.88;;;11.38;55.58
38786;BME280;24535;45.508;12.252;2023-04-07T00:22:19;101646.75;;;11.36;55.60
38786;BME280;24535;45.508;12.252;2023-04-07T00:24:44;101651.06;;;11.37;55.73
38786;BME280;24535;45.508;12.252;2023-04-07T00:27:10;101648.44;;;11.37;55.42
38786;BME280;24535;45.508;12.252;2023-04-07T00:29:35;101647.59;;;11.37;55.73
38786;BME280;24535;45.508;12.252;2023-04-07T00:32:01;101644.22;;;11.35;55.71
38786;BME280;24535;45.508;12.252;2023-04-07T00:34:27;101649.28;;;11.38;55.84
38786;BME280;24535;45.508;12.252;2023-04-07T00:36:52;101645.91;;;11.36;55.66
38786;BME280;24535;45.508;12.252;2023-04-07T00:39:18;101637.19;;;11.34;55.22
38786;BME280;24535;45.508;12.252;2023-04-07T00:41:44;101632.03;;;11.32;55.01
38786;BME280;24535;45.508;12.252;2023-04-07T00:44:10;101640.94;;;11.30;55.41
38786;BME280;24535;45.508;12.252;2023-04-07T00:46:36;101637.66;;;11.26;55.27
38786;BME280;24535;45.508;12.252;2023-04-07T00:49:02;101637.03;;;11.21;54.83
38786;BME280;24535;45.508;12.252;2023-04-07T00:51:27;101641.56;;;11.19;55.33
38786;BME280;24535;45.508;12.252;2023-04-07T00:53:53;101635.59;;;11.16;55.31
38786;BME280;24535;45.508;12.252;2023-04-07T00:56:19;101647.78;;;11.18;55.37
38786;BME280;24535;45.508;12.252;2023-04-07T00:58:44;101638.75;;;11.22;55.17
38786;BME280;24535;45.508;12.252;2023-04-07T01:01:53;101641.56;;;11.19;54.95
38786;BME280;24535;45.508;12.252;2023-04-07T01:04:08;101633.13;;;11.12;55.16
38786;BME280;24535;45.508;12.252;2023-04-07T01:06:39;101632.69;;;11.04;55.05
38786;BME280;24535;45.508;12.252;2023-04-07T01:09:22;101634.03;;;10.96;55.37
38786;BME280;24535;45.508;12.252;2023-04-07T01:14:34;101634.94;;;10.79;55.29
38786;BME280;24535;45.508;12.252;2023-04-07T01:17:06;101625.56;;;10.73;55.89
38786;BME280;24535;45.508;12.252;2023-04-07T01:20:07;101630.09;;;10.71;57.17
38786;BME280;24535;45.508;12.252;2023-04-07T01:22:56;101620.50;;;10.70;56.93
38786;BME280;24535;45.508;12.252;2023-04-07T01:25:37;101624.91;;;10.70;56.89
38786;BME280;24535;45.508;12.252;2023-04-07T01:30:46;101619.78;;;10.67;56.66
38786;BME280;24535;45.508;12.252;2023-04-07T01:33:14;101626.59;;;10.71;56.37
38786;BME280;24535;45.508;12.252;2023-04-07T01:35:40;101628.91;;;10.77;55.69
38786;BME280;24535;45.508;12.252;2023-04-07T01:38:07;101630.63;;;10.78;55.71
38786;BME280;24535;45.508;12.252;2023-04-07T01:40:34;101634.94;;;10.79;55.47
38786;BME280;24535;45.508;12.252;2023-04-07T01:43:01;101629.94;;;10.74;55.55
38786;BME280;24535;45.508;12.252;2023-04-07T01:45:27;101637.00;;;10.74;55.61
38786;BME280;24535;45.508;12.252;2023-04-07T01:47:54;101625.75;;;10.70;55.89
38786;BME280;24535;45.508;12.252;2023-04-07T01:50:21;101626.00;;;10.66;55.77
38786;BME280;24535;45.508;12.252;2023-04-07T01:52:48;101627.94;;;10.62;55.53
38786;BME280;24535;45.508;12.252;2023-04-07T01:55:13;101626.56;;;10.55;55.71
38786;BME280;24535;45.508;12.252;2023-04-07T01:57:39;101632.06;;;10.50;55.84
38786;BME280;24535;45.508;12.252;2023-04-07T02:00:05;101633.31;;;10.43;56.16
38786;BME280;24535;45.508;12.252;2023-04-07T02:02:35;101626.50;;;10.39;56.17
38786;BME280;24535;45.508;12.252;2023-04-07T02:05:06;101626.59;;;10.37;56.16
38786;BME280;24535;45.508;12.252;2023-04-07T02:10:01;101623.31;;;10.32;56.25
38786;BME280;24535;45.508;12.252;2023-04-07T02:12:28;101633.09;;;10.30;56.49
38786;BME280;24535;45.508;12.252;2023-04-07T02:14:55;101625.34;;;10.27;56.70
38786;BME280;24535;45.508;12.252;2023-04-07T02:17:26;101626.50;;;10.22;56.08
38786;BME280;24535;45.508;12.252;2023-04-07T02:19:53;101623.00;;;10.21;56.33
38786;BME280;24535;45.508;12.252;2023-04-07T02:22:20;101619.50;;;10.21;56.50
38786;BME280;24535;45.508;12.252;2023-04-07T02:24:45;101622.31;;;10.18;56.27
38786;BME280;24535;45.508;12.252;2023-04-07T02:27:11;101621.28;;;10.20;56.15
38786;BME280;24535;45.508;12.252;2023-04-07T02:29:37;101623.00;;;10.21;56.72
38786;BME280;24535;45.508;12.252;2023-04-07T02:32:02;101617.81;;;10.20;56.19
38786;BME280;24535;45.508;12.252;2023-04-07T02:34:28;101622.22;;;10.19;56.19
38786;BME280;24535;45.508;12.252;2023-04-07T02:36:53;101615.41;;;10.15;55.80
38786;BME280;24535;45.508;12.252;2023-04-07T02:39:19;101618.97;;;10.14;56.11
38786;BME280;24535;45.508;12.252;2023-04-07T02:41:44;101612.31;;;10.07;56.30
38786;BME280;24535;45.508;12.252;2023-04-07T02:44:10;101616.97;;;10.02;56.68
38786;BME280;24535;45.508;12.252;2023-04-07T02:46:35;101623.94;;;10.03;56.45
38786;BME280;24535;45.508;12.252;2023-04-07T02:49:01;101622.63;;;10.11;57.14
38786;BME280;24535;45.508;12.252;2023-04-07T02:51:27;101622.47;;;10.14;56.54
38786;BME280;24535;45.508;12.252;2023-04-07T02:53:53;101616.19;;;10.17;56.71
38786;BME280;24535;45.508;12.252;2023-04-07T02:56:18;101628.28;;;10.21;56.60
38786;BME280;24535;45.508;12.252;2023-04-07T02:58:43;101618.03;;;10.15;56.05
38786;BME280;24535;45.508;12.252;2023-04-07T03:01:09;101618.44;;;10.07;55.32
38786;BME280;24535;45.508;12.252;2023-04-07T03:03:34;101621.44;;;10.00;55.86
38786;BME280;24535;45.508;12.252;2023-04-07T03:06:00;101612.19;;;9.93;56.66
38786;BME280;24535;45.508;12.252;2023-04-07T03:08:26;101615.19;;;9.85;56.01
38786;BME280;24535;45.508;12.252;2023-04-07T03:10:51;101620.59;;;9.82;55.86
38786;BME280;24535;45.508;12.252;2023-04-07T03:13:17;101615.47;;;9.79;56.22
38786;BME280;24535;45.508;12.252;2023-04-07T03:15:44;101622.53;;;9.78;56.24
38786;BME280;24535;45.508;12.252;2023-04-07T03:18:09;101622.75;;;9.74;57.24
38786;BME280;24535;45.508;12.252;2023-04-07T03:20:36;101626.31;;;9.73;56.80
38786;BME280;24535;45.508;12.252;2023-04-07T03:23:02;101619.50;;;9.69;56.26
38786;BME280;24535;45.508;12.252;2023-04-07T03:25:27;101613.53;;;9.65;57.09
38786;BME280;24535;45.508;12.252;2023-04-07T03:27:53;101606.63;;;9.62;56.63
38786;BME280;24535;45.508;12.252;2023-04-07T03:30:18;101613.69;;;9.62;56.79
38786;BME280;24535;45.508;12.252;2023-04-07T03:32:44;101619.78;;;9.62;57.21
38786;BME280;24535;45.508;12.252;2023-04-07T03:35:09;101612.50;;;9.68;57.53
38786;BME280;24535;45.508;12.252;2023-04-07T03:37:35;101609.13;;;9.65;57.38
38786;BME280;24535;45.508;12.252;2023-04-07T03:40:00;101601.47;;;9.61;57.13
38786;BME280;24535;45.508;12.252;2023-04-07T03:42:26;101610.19;;;9.61;57.25
38786;BME280;24535;45.508;12.252;2023-04-07T03:44:52;101611.13;;;9.60;57.05
38786;BME280;24535;45.508;12.252;2023-04-07T03:47:17;101611.97;;;9.61;57.03
38786;BME280;24535;45.508;12.252;2023-04-07T03:49:43;101607.72;;;9.58;56.85
38786;BME280;24535;45.508;12.252;2023-04-07T03:52:08;101608.56;;;9.59;57.75
38786;BME280;24535;45.508;12.252;2023-04-07T03:54:34;101609.50;;;9.58;57.65
38786;BME280;24535;45.508;12.252;2023-04-07T03:57:00;101606.78;;;9.59;57.15
38786;BME280;24535;45.508;12.252;2023-04-07T03:59:27;101607.72;;;9.58;57.41
38786;BME280;24535;45.508;12.252;2023-04-07T04:01:52;101611.19;;;9.59;57.52
38786;BME280;24535;45.508;12.252;2023-04-07T04:04:18;101612.13;;;9.58;57.47
38786;BME280;24535;45.508;12.252;2023-04-07T04:06:44;101609.50;;;9.58;57.36
38786;BME280;24535;45.508;12.252;2023-04-07T04:09:09;101612.22;;;9.56;57.11
38786;BME280;24535;45.508;12.252;2023-04-07T04:11:35;101610.66;;;9.52;57.19
38786;BME280;24535;45.508;12.252;2023-04-07T04:14:00;101611.56;;;9.51;57.31
38786;BME280;24535;45.508;12.252;2023-04-07T04:16:26;101606.28;;;9.51;57.45
38786;BME280;24535;45.508;12.252;2023-04-07T04:18:51;101610.72;;;9.51;57.58
38786;BME280;24535;45.508;12.252;2023-04-07T04:21:17;101608.22;;;9.48;57.00
38786;BME280;24535;45.508;12.252;2023-04-07T04:23:42;101612.50;;;9.50;57.24
38786;BME280;24535;45.508;12.252;2023-04-07T04:26:08;101610.78;;;9.49;57.38
38786;BME280;24535;45.508;12.252;2023-04-07T04:28:33;101611.72;;;9.48;57.20
38786;BME280;24535;45.508;12.252;2023-04-07T04:30:59;101618.69;;;9.49;57.47
38786;BME280;24535;45.508;12.252;2023-04-07T04:33:24;101620.53;;;9.47;57.14
38786;BME280;24535;45.508;12.252;2023-04-07T04:35:49;101613.56;;;9.46;57.49
38786;BME280;24535;45.508;12.252;2023-04-07T04:38:15;101624.00;;;9.48;57.69
38786;BME280;24535;45.508;12.252;2023-04-07T04:40:41;101617.97;;;9.46;57.46
38786;BME280;24535;45.508;12.252;2023-04-07T04:43:06;101615.25;;;9.47;57.68
38786;BME280;24535;45.508;12.252;2023-04-07T04:45:33;101624.78;;;9.50;57.10
38786;BME280;24535;45.508;12.252;2023-04-07T04:47:59;101626.56;;;9.49;56.73
38786;BME280;24535;45.508;12.252;2023-04-07T04:50:25;101632.78;;;9.48;57.37
38786;BME280;24535;45.508;12.252;2023-04-07T04:52:51;101635.31;;;9.50;57.07
38786;BME280;24535;45.508;12.252;2023-04-07T04:55:17;101634.47;;;9.49;57.50
38786;BME280;24535;45.508;12.252;2023-04-07T04:57:42;101631.69;;;9.52;57.12
38786;BME280;24535;45.508;12.252;2023-04-07T05:00:08;101635.09;;;9.54;57.18
38786;BME280;24535;45.508;12.252;2023-04-07T05:02:35;101631.47;;;9.57;57.19
38786;BME280;24535;45.508;12.252;2023-04-07T05:05:00;101623.63;;;9.55;56.73
38786;BME280;24535;45.508;12.252;2023-04-07T05:07:26;101626.25;;;9.55;56.68
38786;BME280;24535;45.508;12.252;2023-04-07T05:09:51;101623.81;;;9.52;56.80
38786;BME280;24535;45.508;12.252;2023-04-07T05:12:17;101628.13;;;9.53;56.42
38786;BME280;24535;45.508;12.252;2023-04-07T05:14:43;101626.44;;;9.52;56.95
38786;BME280;24535;45.508;12.252;2023-04-07T05:17:08;101629.91;;;9.53;57.08
38786;BME280;24535;45.508;12.252;2023-04-07T05:19:34;101632.53;;;9.53;56.58
38786;BME280;24535;45.508;12.252;2023-04-07T05:21:59;101635.22;;;9.51;56.59
38786;BME280;24535;45.508;12.252;2023-04-07T05:24:27;101637.72;;;9.54;56.80
38786;BME280;24535;45.508;12.252;2023-04-07T05:26:53;101648.09;;;9.57;56.81
38786;BME280;24535;45.508;12.252;2023-04-07T05:29:18;101645.47;;;9.57;57.02
38786;BME280;24535;45.508;12.252;2023-04-07T05:31:43;101641.06;;;9.58;56.41
38786;BME280;24535;45.508;12.252;2023-04-07T05:34:09;101640.06;;;9.60;56.80
38786;BME280;24535;45.508;12.252;2023-04-07T05:36:35;101643.47;;;9.62;56.35
38786;BME280;24535;45.508;12.252;2023-04-07T05:39:00;101640.59;;;9.67;56.19
38786;BME280;24535;45.508;12.252;2023-04-07T05:41:26;101640.38;;;9.72;56.35
38786;BME280;24535;45.508;12.252;2023-04-07T05:43:51;101633.19;;;9.75;56.62
38786;BME280;24535;45.508;12.252;2023-04-07T05:46:17;101620.59;;;9.82;56.46
38786;BME280;24535;45.508;12.252;2023-04-07T05:48:42;101623.69;;;9.90;56.45
38786;BME280;24535;45.508;12.252;2023-04-07T05:51:08;101629.19;;;10.03;56.70
38786;BME280;24535;45.508;12.252;2023-04-07T05:53:33;101632.66;;;10.21;56.37
38786;BME280;24535;45.508;12.252;2023-04-07T05:55:59;101633.63;;;10.37;55.68
38786;BME280;24535;45.508;12.252;2023-04-07T05:58:24;101626.00;;;10.48;55.72
38786;BME280;24535;45.508;12.252;2023-04-07T06:00:50;101623.78;;;10.58;55.35
38786;BME280;24535;45.508;12.252;2023-04-07T06:03:15;101633.56;;;10.72;54.86
38786;BME280;24535;45.508;12.252;2023-04-07T06:05:41;101634.19;;;10.93;55.17
38786;BME280;24535;45.508;12.252;2023-04-07T06:08:08;101629.38;;;11.17;54.65
38786;BME280;24535;45.508;12.252;2023-04-07T06:10:34;101624.53;;;11.41;54.42
38786;BME280;24535;45.508;12.252;2023-04-07T06:13:00;101622.28;;;11.64;53.97
38786;BME280;24535;45.508;12.252;2023-04-07T06:15:25;101620.47;;;11.81;52.83
38786;BME280;24535;45.508;12.252;2023-04-07T06:17:51;101631.88;;;11.97;52.47
38786;BME280;24535;45.508;12.252;2023-04-07T06:20:16;101628.03;;;12.03;51.93
38786;BME280;24535;45.508;12.252;2023-04-07T06:22:42;101631.53;;;12.03;51.85
38786;BME280;24535;45.508;12.252;2023-04-07T06:25:07;101631.88;;;11.97;51.58
38786;BME280;24535;45.508;12.252;2023-04-07T06:27:34;101627.63;;;11.95;51.79
38786;BME280;24535;45.508;12.252;2023-04-07T06:30:00;101623.22;;;11.95;52.14
38786;BME280;24535;45.508;12.252;2023-04-07T06:32:25;101616.81;;;11.99;52.50
38786;BME280;24535;45.508;12.252;2023-04-07T06:34:52;101617.22;;;12.07;52.43
38786;BME280;24535;45.508;12.252;2023-04-07T06:37:17;101619.97;;;12.20;52.96
38786;BME280;24535;45.508;12.252;2023-04-07T06:39:43;101615.75;;;12.32;52.32
38786;BME280;24535;45.508;12.252;2023-04-07T06:42:09;101617.44;;;12.33;51.95
38786;BME280;24535;45.508;12.252;2023-04-07T06:44:34;101620.66;;;12.38;51.68
38786;BME280;24535;45.508;12.252;2023-04-07T06:47:00;101630.19;;;12.41;51.80
38786;BME280;24535;45.508;12.252;2023-04-07T06:49:25;101625.56;;;12.44;51.57
38786;BME280;24535;45.508;12.252;2023-04-07T06:51:51;101616.41;;;12.50;52.33
38786;BME280;24535;45.508;12.252;2023-04-07T06:54:16;101619.53;;;12.56;51.67
38786;BME280;24535;45.508;12.252;2023-04-07T06:56:42;101621.44;;;12.69;52.60
38786;BME280;24535;45.508;12.252;2023-04-07T06:59:08;101620.03;;;12.77;52.19
38786;BME280;24535;45.508;12.252;2023-04-07T07:01:33;101617.19;;;12.80;52.11
38786;BME280;24535;45.508;12.252;2023-04-07T07:03:59;101617.81;;;12.84;52.42
38786;BME280;24535;45.508;12.252;2023-04-07T07:06:26;101624.25;;;12.94;52.36
38786;BME280;24535;45.508;12.252;2023-04-07T07:08:52;101617.06;;;13.10;52.02
38786;BME280;24535;45.508;12.252;2023-04-07T07:11:18;101621.28;;;13.42;53.21
38786;BME280;24535;45.508;12.252;2023-04-07T07:13:43;101620.03;;;13.74;51.89
38786;BME280;24535;45.508;12.252;2023-04-07T07:16:10;101619.44;;;13.96;51.33
38786;BME280;24535;45.508;12.252;2023-04-07T07:18:37;101624.75;;;14.09;50.41
38786;BME280;24535;45.508;12.252;2023-04-07T07:21:02;101619.69;;;14.19;50.45
38786;BME280;24535;45.508;12.252;2023-04-07T07:23:28;101623.06;;;14.21;49.41
38786;BME280;24535;45.508;12.252;2023-04-07T07:25:53;101621.59;;;14.17;49.39
38786;BME280;24535;45.508;12.252;2023-04-07T07:28:19;101626.03;;;14.16;50.17
38786;BME280;24535;45.508;12.252;2023-04-07T07:30:46;101622.84;;;14.11;49.63
38786;BME280;24535;45.508;12.252;2023-04-07T07:33:11;101620.53;;;14.06;49.70
38786;BME280;24535;45.508;12.252;2023-04-07T07:35:37;101611.81;;;14.04;49.75
38786;BME280;24535;45.508;12.252;2023-04-07T07:38:03;101612.78;;;14.03;50.04
38786;BME280;24535;45.508;12.252;2023-04-07T07:40:28;101614.25;;;14.07;50.68
38786;BME280;24535;45.508;12.252;2023-04-07T07:42:54;101609.81;;;14.21;51.28
38786;BME280;24535;45.508;12.252;2023-04-07T07:45:19;101617.16;;;14.43;51.16
38786;BME280;24535;45.508;12.252;2023-04-07T07:47:45;101610.59;;;14.74;50.56
38786;BME280;24535;45.508;12.252;2023-04-07T07:50:11;101602.06;;;15.07;50.27
38786;BME280;24535;45.508;12.252;2023-04-07T07:52:36;101607.22;;;15.45;49.78
38786;BME280;24535;45.508;12.252;2023-04-07T07:55:02;101600.19;;;15.81;49.14
38786;BME280;24535;45.508;12.252;2023-04-07T07:57:30;101599.91;;;16.19;48.49
38786;BME280;24535;45.508;12.252;2023-04-07T07:59:56;101595.72;;;16.50;47.43
38786;BME280;24535;45.508;12.252;2023-04-07T08:02:21;101599.50;;;16.70;46.96
38786;BME280;24535;45.508;12.252;2023-04-07T08:04:47;101590.81;;;16.79;47.22
38786;BME280;24535;45.508;12.252;2023-04-07T08:07:12;101595.53;;;16.87;46.82
38786;BME280;24535;45.508;12.252;2023-04-07T08:09:38;101598.41;;;16.95;46.41
38786;BME280;24535;45.508;12.252;2023-04-07T08:12:03;101586.78;;;17.08;46.96
38786;BME280;24535;45.508;12.252;2023-04-07T08:14:28;101588.44;;;17.31;46.71
38786;BME280;24535;45.508;12.252;2023-04-07T08:16:57;101590.75;;;17.57;46.42
38786;BME280;24535;45.508;12.252;2023-04-07T08:19:22;101587.41;;;17.87;46.17
38786;BME280;24535;45.508;12.252;2023-04-07T08:21:48;101586.59;;;18.17;46.33
38786;BME280;24535;45.508;12.252;2023-04-07T08:24:14;101576.50;;;18.41;46.08
38786;BME280;24535;45.508;12.252;2023-04-07T08:26:40;101574.63;;;18.63;45.96
38786;BME280;24535;45.508;12.252;2023-04-07T08:29:05;101571.66;;;18.87;46.08
38786;BME280;24535;45.508;12.252;2023-04-07T08:31:30;101569.03;;;19.16;45.24
38786;BME280;24535;45.508;12.252;2023-04-07T08:33:56;101570.50;;;19.49;45.05
38786;BME280;24535;45.508;12.252;2023-04-07T08:36:26;101572.06;;;19.81;44.16
38786;BME280;24535;45.508;12.252;2023-04-07T08:38:52;101573.72;;;20.11;43.86
38786;BME280;24535;45.508;12.252;2023-04-07T08:41:37;101571.56;;;20.34;40.12
38786;BME280;24535;45.508;12.252;2023-04-07T08:44:06;101568.97;;;20.52;42.41
38786;BME280;24535;45.508;12.252;2023-04-07T08:46:32;101578.34;;;20.65;40.98
38786;BME280;24535;45.508;12.252;2023-04-07T08:48:59;101567.06;;;20.71;41.27
38786;BME280;24535;45.508;12.252;2023-04-07T08:51:32;101566.44;;;20.78;38.58
38786;BME280;24535;45.508;12.252;2023-04-07T08:54:07;101562.63;;;20.80;38.67
38786;BME280;24535;45.508;12.252;2023-04-07T08:56:33;101565.03;;;20.83;40.17
38786;BME280;24535;45.508;12.252;2023-04-07T08:59:01;101560.59;;;20.92;39.88
38786;BME280;24535;45.508;12.252;2023-04-07T09:01:27;101550.75;;;21.10;39.69
38786;BME280;24535;45.508;12.252;2023-04-07T09:03:55;101549.53;;;21.22;38.92
38786;BME280;24535;45.508;12.252;2023-04-07T09:06:23;101553.41;;;21.38;38.87
38786;BME280;24535;45.508;12.252;2023-04-07T09:08:48;101549.88;;;21.55;38.92
38786;BME280;24535;45.508;12.252;2023-04-07T09:11:14;101550.03;;;21.71;38.98
38786;BME280;24535;45.508;12.252;2023-04-07T09:13:39;101552.97;;;21.86;37.95
38786;BME280;24535;45.508;12.252;2023-04-07T09:16:05;101553.41;;;22.00;38.08
38786;BME280;24535;45.508;12.252;2023-04-07T09:18:33;101555.00;;;22.10;36.33
38786;BME280;24535;45.508;12.252;2023-04-07T09:21:01;101549.88;;;22.17;36.54
38786;BME280;24535;45.508;12.252;2023-04-07T09:23:32;101550.53;;;22.19;35.19
38786;BME280;24535;45.508;12.252;2023-04-07T09:25:59;101538.72;;;22.12;36.47
38786;BME280;24535;45.508;12.252;2023-04-07T09:28:39;101553.53;;;22.16;34.73
38786;BME280;24535;45.508;12.252;2023-04-07T09:31:05;101552.38;;;22.18;36.51
38786;BME280;24535;45.508;12.252;2023-04-07T09:33:31;101551.59;;;22.26;35.26
38786;BME280;24535;45.508;12.252;2023-04-07T09:35:56;101556.97;;;22.26;34.39
38786;BME280;24535;45.508;12.252;2023-04-07T09:38:31;101552.03;;;22.13;33.05
38786;BME280;24535;45.508;12.252;2023-04-07T09:41:07;101553.09;;;22.03;33.34
38786;BME280;24535;45.508;12.252;2023-04-07T09:43:36;101552.03;;;21.95;33.85
38786;BME280;24535;45.508;12.252;2023-04-07T09:46:19;101550.81;;;21.90;32.72
38786;BME280;24535;45.508;12.252;2023-04-07T09:48:45;101555.47;;;21.80;33.99
38786;BME280;24535;45.508;12.252;2023-04-07T09:51:12;101557.06;;;21.72;33.62
38786;BME280;24535;45.508;12.252;2023-04-07T09:56:17;101550.88;;;21.36;33.60
38786;BME280;24535;45.508;12.252;2023-04-07T09:58:46;101550.44;;;21.13;33.52
38786;BME280;24535;45.508;12.252;2023-04-07T10:01:13;101549.19;;;20.90;33.04
38786;BME280;24535;45.508;12.252;2023-04-07T10:03:39;101549.16;;;20.72;33.94
38786;BME280;24535;45.508;12.252;2023-04-07T10:06:05;101542.59;;;20.57;33.20
38786;BME280;24535;45.508;12.252;2023-04-07T10:08:33;101542.91;;;20.44;33.78
38786;BME280;24535;45.508;12.252;2023-04-07T10:11:00;101535.38;;;20.30;33.96
38786;BME280;24535;45.508;12.252;2023-04-07T10:13:29;101539.78;;;20.11;34.21
38786;BME280;24535;45.508;12.252;2023-04-07T10:15:55;101544.03;;;19.94;33.77
38786;BME280;24535;45.508;12.252;2023-04-07T10:18:22;101539.28;;;19.79;33.93
38786;BME280;24535;45.508;12.252;2023-04-07T10:20:51;101533.50;;;19.64;34.03
38786;BME280;24535;45.508;12.252;2023-04-07T10:23:21;101535.34;;;19.54;34.10
38786;BME280;24535;45.508;12.252;2023-04-07T10:25:51;101534.19;;;19.46;34.49
38786;BME280;24535;45.508;12.252;2023-04-07T10:28:17;101534.06;;;19.38;34.99
38786;BME280;24535;45.508;12.252;2023-04-07T10:30:47;101534.75;;;19.31;34.42
38786;BME280;24535;45.508;12.252;2023-04-07T10:33:13;101542.47;;;19.24;35.09
38786;BME280;24535;45.508;12.252;2023-04-07T10:36:04;101531.63;;;19.16;34.96
38786;BME280;24535;45.508;12.252;2023-04-07T10:38:30;101529.69;;;19.08;35.27
38786;BME280;24535;45.508;12.252;2023-04-07T10:40:57;101525.03;;;19.00;35.04
38786;BME280;24535;45.508;12.252;2023-04-07T10:43:39;101521.34;;;18.92;35.20
38786;BME280;24535;45.508;12.252;2023-04-07T10:46:06;101527.25;;;18.86;35.35
38786;BME280;24535;45.508;12.252;2023-04-07T10:48:31;101521.31;;;18.72;35.88
38786;BME280;24535;45.508;12.252;2023-04-07T10:53:29;101525.63;;;18.64;35.43
38786;BME280;24535;45.508;12.252;2023-04-07T10:55:56;101519.13;;;18.57;35.48
38786;BME280;24535;45.508;12.252;2023-04-07T10:58:31;101512.50;;;18.51;35.34
38786;BME280;24535;45.508;12.252;2023-04-07T11:03:27;101504.91;;;18.46;35.63
38786;BME280;24535;45.508;12.252;2023-04-07T11:06:08;101508.81;;;18.42;34.33
38786;BME280;24535;45.508;12.252;2023-04-07T11:08:43;101503.88;;;18.38;33.73
38786;BME280;24535;45.508;12.252;2023-04-07T11:11:14;101499.94;;;18.32;33.37
38786;BME280;24535;45.508;12.252;2023-04-07T11:13:47;101501.88;;;18.30;34.00
38786;BME280;24535;45.508;12.252;2023-04-07T11:16:15;101500.72;;;18.23;32.61
38786;BME280;24535;45.508;12.252;2023-04-07T11:18:41;101493.59;;;18.23;33.05
38786;BME280;24535;45.508;12.252;2023-04-07T11:21:07;101493.25;;;18.17;33.17
38786;BME280;24535;45.508;12.252;2023-04-07T11:23:43;101500.44;;;18.16;32.85
38786;BME280;24535;45.508;12.252;2023-04-07T11:26:11;101495.75;;;18.09;33.19
38786;BME280;24535;45.508;12.252;2023-04-07T11:28:48;101486.47;;;18.03;33.19
38786;BME280;24535;45.508;12.252;2023-04-07T11:31:30;101490.50;;;17.97;31.56
38786;BME280;24535;45.508;12.252;2023-04-07T11:34:03;101481.81;;;17.95;32.82
38786;BME280;24535;45.508;12.252;2023-04-07T11:36:31;101485.97;;;17.88;33.33
38786;BME280;24535;45.508;12.252;2023-04-07T11:38:58;101474.72;;;17.85;32.98
38786;BME280;24535;45.508;12.252;2023-04-07T11:41:28;101481.28;;;17.81;31.54
38786;BME280;24535;45.508;12.252;2023-04-07T11:44:10;101467.50;;;17.75;30.84
38786;BME280;24535;45.508;12.252;2023-04-07T11:46:51;101469.41;;;17.73;31.71
38786;BME280;24535;45.508;12.252;2023-04-07T11:49:18;101470.78;;;17.68;32.14
38786;BME280;24535;45.508;12.252;2023-04-07T11:51:43;101469.38;;;17.64;32.14
38786;BME280;24535;45.508;12.252;2023-04-07T11:54:09;101474.81;;;17.62;32.34
38786;BME280;24535;45.508;12.252;2023-04-07T11:56:43;101465.97;;;17.62;31.15
38786;BME280;24535;45.508;12.252;2023-04-07T11:59:17;101459.94;;;17.60;30.79
38786;BME280;24535;45.508;12.252;2023-04-07T12:01:44;101462.88;;;17.57;31.45
38786;BME280;24535;45.508;12.252;2023-04-07T12:04:12;101453.44;;;17.52;31.13
38786;BME280;24535;45.508;12.252;2023-04-07T12:06:39;101454.44;;;17.51;32.24
38786;BME280;24535;45.508;12.252;2023-04-07T12:09:07;101455.53;;;17.49;31.95
38786;BME280;24535;45.508;12.252;2023-04-07T12:11:33;101448.75;;;17.45;32.15
38786;BME280;24535;45.508;12.252;2023-04-07T12:14:00;101446.34;;;17.42;31.77
38786;BME280;24535;45.508;12.252;2023-04-07T12:16:26;101442.13;;;17.39;32.30
38786;BME280;24535;45.508;12.252;2023-04-07T12:18:51;101441.56;;;17.36;31.79
38786;BME280;24535;45.508;12.252;2023-04-07T12:21:18;101446.28;;;17.32;31.85
38786;BME280;24535;45.508;12.252;2023-04-07T12:23:44;101444.59;;;17.31;32.23
38786;BME280;24535;45.508;12.252;2023-04-07T12:26:10;101438.31;;;17.32;31.85
38786;BME280;24535;45.508;12.252;2023-04-07T12:28:36;101444.00;;;17.27;31.65
38786;BME280;24535;45.508;12.252;2023-04-07T12:31:02;101448.63;;;17.25;31.70
38786;BME280;24535;45.508;12.252;2023-04-07T12:33:28;101441.00;;;17.21;32.07
38786;BME280;24535;45.508;12.252;2023-04-07T12:35:56;101448.28;;;17.19;32.75
38786;BME280;24535;45.508;12.252;2023-04-07T12:38:21;101441.53;;;17.15;32.71
38786;BME280;24535;45.508;12.252;2023-04-07T12:40:47;101447.13;;;17.12;32.20
38786;BME280;24535;45.508;12.252;2023-04-07T12:43:12;101443.75;;;17.10;32.31
38786;BME280;24535;45.508;12.252;2023-04-07T12:45:38;101443.16;;;17.06;32.59
38786;BME280;24535;45.508;12.252;2023-04-07T12:48:03;101436.13;;;17.05;32.43
38786;BME280;24535;45.508;12.252;2023-04-07T12:50:29;101442.41;;;17.04;32.86
38786;BME280;24535;45.508;12.252;2023-04-07T12:52:56;101442.31;;;17.05;33.01
38786;BME280;24535;45.508;12.252;2023-04-07T12:55:23;101435.41;;;17.03;32.86
38786;BME280;24535;45.508;12.252;2023-04-07T12:57:48;101432.63;;;17.04;32.90